• Join FlightAware (Why Join?)
  • Login
  • US Flag 
08:30PM EDT


 

Airport Tracker/Info


-or-


 

Live Flight TrackerFlight Track Log ✈ UAL4401 ✈ 25-Apr-2013 ✈ KIAH - KIAD

Flight Track Log - Related Links

Times and Time Zones

All times are in EDT time to prevent confusion due to time zone crossing. See the UAL4401 flight status page for this flight to view local times or setup timezone preferences in your user account.

Time Position Orientation Groundspeed Altitude Reporting Facility
EDT Latitude Longitude Course Direction KTS MPH feet Rate Location/Type
08:17PM 29.9572 -95.3392 110° East 192 221 700  Level Houston Center
08:19PM 29.9336 -95.2650 110° East 223 257 3,100 1,860 Climbing Houston Center
08:20PM 29.9428 -95.1842 83° East 271 312 5,100 2,280 Climbing Houston Center
08:21PM 29.9347 -95.0961 96° East 267 307 7,800 2,340 Climbing Houston Center
08:22PM 29.9281 -95.0053 95° East 280 322 9,900 1,380 Climbing Houston Center
08:23PM 29.9172 -94.8875 96° East 314 361 11,000 840 Climbing Houston Center
08:24PM 29.9061 -94.7700 96° East 361 415 11,900 960 Climbing Houston Center
08:25PM 29.8953 -94.6461 96° East 381 438 13,100 1,200 Climbing Houston Center
08:26PM 29.8828 -94.5186 96° East 395 455 14,400 1,200 Climbing Houston Center
08:27PM 29.8700 -94.3925 97° East 397 457 15,700 1,380 Climbing Houston Center
08:28PM 29.8603 -94.2656 95° East 398 458 17,300 1,380 Climbing Houston Center
08:29PM 29.8558 -94.1314 92° East 389 448 18,600 1,140 Climbing Houston Center
08:30PM 29.8575 -94.0075 89° East 389 448 19,700 1,200 Climbing Houston Center
08:31PM 29.8744 -93.8567 83° East 398 458 21,200 1,140 Climbing Houston Center
08:32PM 29.8867 -93.7283 84° East 403 464 22,100 720 Climbing Houston Center
08:33PM 29.9014 -93.5964 83° East 414 476 22,800 720 Climbing Houston Center
08:34PM 29.9147 -93.4597 84° East 430 495 23,600 900 Climbing Houston Center
08:35PM 29.9281 -93.3228 84° East 433 498 24,700 1,380 Climbing Houston Center
08:36PM 29.9447 -93.1617 83° East 428 493 26,500 1,620 Climbing Houston Center
08:37PM 29.9578 -93.0317 83° East 415 478 28,100 1,320 Climbing Houston Center
08:38PM 29.9711 -92.9050 83° East 403 464 29,300 1,020 Climbing Houston Center
08:39PM 29.9817 -92.7767 85° East 405 466 30,300 960 Climbing Houston Center
08:40PM 30.0142 -92.6511 73° East 410 472 31,300 900 Climbing Houston Center
08:41PM 30.0567 -92.4967 72° East 419 482 32,200 840 Climbing Houston Center
08:42PM 30.0928 -92.3678 72° East 425 489 33,100 840 Climbing Houston Center
08:43PM 30.1283 -92.2372 72° East 427 491 34,000 840 Climbing Houston Center
08:45PM 30.1631 -92.1094 73° East 420 483 34,900 480 Climbing Houston Center
08:46PM 30.1906 -91.9742 77° East 429 494 35,000  Climbing Houston Center
08:47PM 30.2133 -91.8247 80° East 453 521 35,000  Level Houston Center
08:48PM 30.2367 -91.6811 79° East 470 541 35,000  Level Houston Center
08:49PM 30.2669 -91.4953 79° East 488 562 35,000  Level Houston Center
08:50PM 30.2919 -91.3356 80° East 504 580 35,000  Level Houston Center
08:51PM 30.3206 -91.1744 78° East 512 589 35,000  Level Houston Center
08:52PM 30.3647 -91.0183 72° East 511 588 35,000  Level Houston Center
08:53PM 30.4114 -90.8619 71° East 513 590 35,000  Level Houston Center
08:54PM 30.4564 -90.7058 71° East 512 589 35,000  Level Houston Center
08:55PM 30.5011 -90.5492 72° East 512 589 35,000  Level Houston Center
08:56PM 30.5553 -90.3603 72° East 513 590 35,000  Level Houston Center
08:57PM 30.5994 -90.2022 72° East 513 590 35,000  Level Houston Center
08:58PM 30.6439 -90.0431 72° East 514 592 35,000  Level Houston Center
08:59PM 30.6889 -89.8842 72° East 513 590 35,000  Level Houston Center
09:00PM 30.7342 -89.7250 72° East 513 590 35,000  Level Houston Center
09:01PM 30.7775 -89.5661 72° East 513 590 35,000  Level Houston Center
09:02PM 30.8214 -89.4064 72° East 515 593 35,000  Level Houston Center
09:03PM 30.8653 -89.2481 72° East 514 592 35,000  Level Houston Center
09:04PM 30.9067 -89.0883 73° East 514 592 35,000  Level Houston Center
09:05PM 30.9553 -88.9000 73° East 509 586 35,000  Level Houston Center
09:06PM 30.9986 -88.7431 72° East 508 585 35,000  Level Houston Center
09:07PM 31.0428 -88.5839 72° East 513 590 35,000  Level Houston Center
09:08PM 31.0839 -88.4244 73° East 515 593 35,000  Level Houston Center
09:09PM 31.1261 -88.2653 73° East 514 592 35,000  Level Houston Center
09:10PM 31.1703 -88.1075 72° East 517 595 35,000  Level Houston Center
09:11PM 31.2114 -87.9483 73° East 512 589 35,000  Level Houston Center
09:12PM 31.2575 -87.7753 73° East 516 594 35,000  Level Houston Center
09:13PM 31.2983 -87.6164 73° East 514 592 35,000  Level Houston Center
09:14PM 31.3781 -87.4844 55° Northeast 501 577 35,000  Level Houston Center
09:15PM 31.4875 -87.3433 48° Northeast 491 565 35,000  Level Atlanta Center
09:16PM 31.5764 -87.2197 50° Northeast 491 565 35,000  Level Atlanta Center
09:17PM 31.6650 -87.1008 49° Northeast 486 559 35,000  Level Atlanta Center
09:18PM 31.7428 -86.9914 50° Northeast 486 559 35,000  Level Atlanta Center
09:19PM 31.8311 -86.8669 50° Northeast 491 565 35,000  Level Atlanta Center
09:20PM 31.9194 -86.7425 50° Northeast 491 565 35,000  Level Atlanta Center
09:21PM 32.0225 -86.6086 48° Northeast 500 575 35,000  Level Atlanta Center
09:22PM 32.1128 -86.4861 49° Northeast 500 575 35,000  Level Atlanta Center
09:23PM 32.1964 -86.3608 52° Northeast 494 568 35,000  Level Atlanta Center
09:24PM 32.2825 -86.2303 52° Northeast 494 568 35,000  Level Atlanta Center
09:25PM 32.3703 -86.1022 51° Northeast 494 568 35,000  Level Atlanta Center
09:26PM 32.4558 -85.9711 52° Northeast 499 574 35,000  Level Atlanta Center
09:27PM 32.5453 -85.8425 50° Northeast 499 574 35,000  Level Atlanta Center
09:28PM 32.6328 -85.7111 52° Northeast 505 581 35,000  Level Atlanta Center
09:29PM 32.7181 -85.5794 52° Northeast 505 581 35,000  Level Atlanta Center
09:30PM 32.8050 -85.4525 51° Northeast 505 581 35,000  Level Atlanta Center
09:31PM 32.8900 -85.3228 52° Northeast 505 581 35,000  Level Atlanta Center
09:32PM 32.9769 -85.1928 51° Northeast 505 581 35,000  Level Atlanta Center
09:33PM 33.0617 -85.0625 52° Northeast 500 575 35,000  Level Atlanta Center
09:34PM 33.1481 -84.9319 52° Northeast 506 582 35,000  Level Atlanta Center
09:35PM 33.2325 -84.8011 52° Northeast 506 582 35,000  Level Atlanta Center
09:36PM 33.3189 -84.6678 52° Northeast 511 588 35,000  Level Atlanta Center
09:37PM 33.4050 -84.5342 52° Northeast 511 588 35,000  Level Atlanta Center
09:38PM 33.4889 -84.4025 53° Northeast 511 588 35,000  Level Atlanta Center
09:39PM 33.5769 -84.2683 52° Northeast 511 588 35,000  Level Atlanta Center
09:40PM 33.6628 -84.1336 53° Northeast 511 588 35,000  Level Atlanta Center
09:41PM 33.7483 -83.9989 53° Northeast 511 588 35,000  Level Atlanta Center
09:42PM 33.8358 -83.8611 53° Northeast 511 588 35,000  Level Atlanta Center
09:43PM 33.9233 -83.7258 52° Northeast 511 588 35,000  Level Atlanta Center
09:44PM 34.0083 -83.5903 53° Northeast 511 588 35,000  Level Atlanta Center
09:45PM 34.0956 -83.4544 52° Northeast 511 588 35,000  Level Atlanta Center
09:46PM 34.1803 -83.3181 53° Northeast 511 588 35,000  Level Atlanta Center
09:47PM 34.2631 -83.1842 53° Northeast 505 581 35,000  Level Atlanta Center
09:48PM 34.3497 -83.0500 52° Northeast 505 581 35,000  Level Atlanta Center
09:49PM 34.4258 -82.9283 53° Northeast 510 587 35,000  Level Atlanta Center
09:50PM 34.5039 -82.7886 56° Northeast 505 581 35,000  Level Atlanta Center
09:51PM 34.5881 -82.6586 52° Northeast 500 575 35,000  Level Atlanta Center
09:52PM 34.6800 -82.5131 52° Northeast 490 564 35,000  Level Atlanta Center
09:53PM 34.7597 -82.3778 54° Northeast 490 564 35,000  Level Atlanta Center
09:54PM 34.8414 -82.2444 53° Northeast 485 558 35,000  Level Atlanta Center
09:55PM 34.9167 -82.1289 52° Northeast 485 558 35,000  Level Atlanta Center
09:56PM 34.9981 -81.9900 54° Northeast 490 564 35,000  Level Atlanta Center
09:57PM 35.0831 -81.8381 56° Northeast 490 564 35,000  Level Atlanta Center
09:58PM 35.1617 -81.6914 57° Northeast 500 575 35,000  Level Atlanta Center
09:59PM 35.2361 -81.5494 57° Northeast 505 581 35,000  Level Atlanta Center
10:00PM 35.3103 -81.4044 58° Northeast 505 581 35,000  Level Atlanta Center
10:01PM 35.3864 -81.2594 57° Northeast 505 581 35,000 -300 Level Atlanta Center
10:02PM 35.4600 -81.1117 59° Northeast 505 581 34,400 -900 Descending Atlanta Center
10:03PM 35.5361 -80.9711 56° Northeast 505 581 33,200 -720 Descending Atlanta Center
10:04PM 35.6094 -80.8278 58° Northeast 500 575 33,000 -120 Descending Atlanta Center
10:05PM 35.6831 -80.6869 57° Northeast 494 568 33,000  Level Atlanta Center
10:06PM 35.7542 -80.5458 58° Northeast 488 562 33,000  Level Atlanta Center
10:09PM 35.9139 -80.2314 58° Northeast 481 554 33,000  Level Washington Center
10:10PM 35.9881 -80.0894 57° Northeast 487 560 33,000  Level Washington Center
10:11PM 36.0642 -79.9525 55° Northeast 482 555 33,000  Level Washington Center
10:12PM 36.1419 -79.8153 55° Northeast 482 555 33,000  Level Washington Center
10:13PM 36.2200 -79.6728 56° Northeast 493 567 33,000  Level Washington Center
10:14PM 36.2911 -79.5450 55° Northeast 499 574 33,000 -420 Level Washington Center
10:15PM 36.3797 -79.3869 55° Northeast 493 567 32,200 -1,320 Descending Washington Center
10:16PM 36.4592 -79.2436 55° Northeast 499 574 30,400 -1,800 Descending Washington Center
10:17PM 36.5408 -79.1003 55° Northeast 504 580 28,600 -1,860 Descending Washington Center
10:18PM 36.6219 -78.9564 55° Northeast 504 580 26,700 -1,740 Descending Washington Center
10:19PM 36.6947 -78.8194 56° Northeast 504 580 25,200 -900 Descending Washington Center
10:20PM 36.7714 -78.6800 56° Northeast 504 580 25,000 -600 Descending Washington Center
10:21PM 36.8567 -78.5253 55° Northeast 498 573 24,000 -1,260 Descending Washington Center
10:22PM 36.9331 -78.3853 56° Northeast 493 567 22,500 -1,020 Descending Washington Center
10:23PM 37.0069 -78.2475 56° Northeast 488 562 22,000 -300 Descending Washington Center
10:24PM 37.1094 -78.1519 37° Northeast 454 522 22,000  Level Washington Center
10:25PM 37.2175 -78.0694 31° Northeast 449 517 22,000  Level Washington Center
10:26PM 37.3256 -77.9867 31° Northeast 454 522 22,000  Level Washington Center
10:27PM 37.4356 -77.9014 32° Northeast 460 529 22,000 -720 Level Washington Center
10:28PM 37.5478 -77.8183 30° Northeast 465 535 20,600 -1,680 Descending Washington Center
10:29PM 37.6617 -77.7508 25° Northeast 451 519 18,700 -1,800 Descending Washington Center
10:30PM 37.7711 -77.6883 24° Northeast 440 506 17,100 -1,860 Descending Washington Center
10:31PM 37.8744 -77.6253 26° Northeast 420 483 15,000 -1,980 Descending Washington Center
10:32PM 37.9756 -77.5647 25° Northeast 403 464 13,200 -1,680 Descending Washington Center
10:33PM 38.0639 -77.5197 22° Northeast 397 457 11,700 -1,500 Descending Washington Center
10:34PM 38.1544 -77.4639 26° Northeast 376 433 10,200 -900 Descending Washington Center
10:35PM 38.2469 -77.4239 19° North 356 410 10,000 -120 Descending Washington Center
10:36PM 38.3408 -77.4131 North 342 394 10,000  Level Washington Center
10:37PM 38.4369 -77.3994 North 337 388 10,000 -540 Level Washington Center
10:38PM 38.5164 -77.3908 North 312 359 9,000 -1,440 Descending Washington Center
10:39PM 38.5894 -77.3819 North 285 328 7,200 -1,800 Descending Washington Center
10:40PM 38.6625 -77.3731 North 264 304 5,500 -1,680 Descending Washington Center
10:40PM 38.7000 -77.3667 North 261 300 4,600 -1,020 Descending Potomac TRACON
10:41PM 38.7667 -77.3667 360° North 264 304 4,100 -300 Descending Potomac TRACON
10:42PM 38.8500 -77.3500 North 267 307 4,000 -300 Descending Potomac TRACON
10:43PM 38.9333 -77.3500 360° North 258 297 3,500 -480 Descending Potomac TRACON
10:44PM 39.0000 -77.3500 360° North 231 266 3,000 -240 Descending Potomac TRACON
10:45PM 39.0500 -77.3500 360° North 210 242 3,100 60 Climbing Potomac TRACON